Terminal Aerodrome Forecast
Issued by NWS Sterling, VA

Current Version | Previous Version | Graphics & Text | Print | Product List | Glossary On
Versions: 1 2 3 4 5 6 7 8 9 10 11 12 13
000
FTUS41 KLWX 131800 AAA
TAFMRB
TAF AMD
KMRB 131858Z 1319/1418 02003KT P6SM FEW010 BKN024 OVC029
     FM140000 32007KT P6SM SCT250
     FM141200 VRB03KT P6SM FEW250=

USA.gov is the U.S. government's official web portal to all federal, state and local government web resources and services.